sensor_id;sensor_type;location;lat;lon;timestamp;P1;P2;P0
80639;PMS5003;69992;60.170;24.692;2024-01-16T00:02:19;9;7;
80639;PMS5003;69992;60.170;24.692;2024-01-16T00:04:44;15;12;
80639;PMS5003;69992;60.170;24.692;2024-01-16T00:07:09;10;9;
80639;PMS5003;69992;60.170;24.692;2024-01-16T00:09:34;19;12;
80639;PMS5003;69992;60.170;24.692;2024-01-16T00:12:00;10;9;
80639;PMS5003;69992;60.170;24.692;2024-01-16T00:14:25;19;10;
80639;PMS5003;69992;60.170;24.692;2024-01-16T00:16:50;10;7;
80639;PMS5003;69992;60.170;24.692;2024-01-16T00:19:15;10;9;
80639;PMS5003;69992;60.170;24.692;2024-01-16T00:21:41;9;7;
80639;PMS5003;69992;60.170;24.692;2024-01-16T00:24:06;12;9;
80639;PMS5003;69992;60.170;24.692;2024-01-16T00:26:32;10;10;
80639;PMS5003;69992;60.170;24.692;2024-01-16T00:28:57;16;10;
80639;PMS5003;69992;60.170;24.692;2024-01-16T00:31:22;10;7;
80639;PMS5003;69992;60.170;24.692;2024-01-16T00:33:48;10;9;
80639;PMS5003;69992;60.170;24.692;2024-01-16T00:36:14;13;7;
80639;PMS5003;69992;60.170;24.692;2024-01-16T00:38:39;10;7;
80639;PMS5003;69992;60.170;24.692;2024-01-16T00:41:05;10;9;
80639;PMS5003;69992;60.170;24.692;2024-01-16T00:43:30;9;7;
80639;PMS5003;69992;60.170;24.692;2024-01-16T00:45:56;10;6;
80639;PMS5003;69992;60.170;24.692;2024-01-16T00:48:21;7;7;
80639;PMS5003;69992;60.170;24.692;2024-01-16T00:50:46;10;4;
80639;PMS5003;69992;60.170;24.692;2024-01-16T00:53:11;10;7;
80639;PMS5003;69992;60.170;24.692;2024-01-16T00:55:37;15;9;
80639;PMS5003;69992;60.170;24.692;2024-01-16T00:58:02;9;9;
80639;PMS5003;69992;60.170;24.692;2024-01-16T01:00:31;10;10;
80639;PMS5003;69992;60.170;24.692;2024-01-16T01:02:53;10;10;
80639;PMS5003;69992;60.170;24.692;2024-01-16T01:05:18;12;9;
80639;PMS5003;69992;60.170;24.692;2024-01-16T01:07:43;7;6;
80639;PMS5003;69992;60.170;24.692;2024-01-16T01:10:09;12;10;
80639;PMS5003;69992;60.170;24.692;2024-01-16T01:12:34;10;9;
80639;PMS5003;69992;60.170;24.692;2024-01-16T01:15:00;10;7;
80639;PMS5003;69992;60.170;24.692;2024-01-16T01:17:25;16;13;
80639;PMS5003;69992;60.170;24.692;2024-01-16T01:19:51;9;7;
80639;PMS5003;69992;60.170;24.692;2024-01-16T01:22:16;12;9;
80639;PMS5003;69992;60.170;24.692;2024-01-16T01:24:41;7;7;
80639;PMS5003;69992;60.170;24.692;2024-01-16T01:27:07;7;7;
80639;PMS5003;69992;60.170;24.692;2024-01-16T01:29:32;12;9;
80639;PMS5003;69992;60.170;24.692;2024-01-16T01:31:58;7;6;
80639;PMS5003;69992;60.170;24.692;2024-01-16T01:34:23;10;9;
80639;PMS5003;69992;60.170;24.692;2024-01-16T01:36:49;10;9;
80639;PMS5003;69992;60.170;24.692;2024-01-16T01:39:14;13;10;
80639;PMS5003;69992;60.170;24.692;2024-01-16T01:41:40;13;9;
80639;PMS5003;69992;60.170;24.692;2024-01-16T01:44:05;7;6;
80639;PMS5003;69992;60.170;24.692;2024-01-16T01:46:30;13;9;
80639;PMS5003;69992;60.170;24.692;2024-01-16T01:48:55;12;10;
80639;PMS5003;69992;60.170;24.692;2024-01-16T01:51:21;12;10;
80639;PMS5003;69992;60.170;24.692;2024-01-16T01:53:47;9;7;
80639;PMS5003;69992;60.170;24.692;2024-01-16T01:56:14;13;9;
80639;PMS5003;69992;60.170;24.692;2024-01-16T01:58:37;7;7;
80639;PMS5003;69992;60.170;24.692;2024-01-16T02:01:02;9;7;
80639;PMS5003;69992;60.170;24.692;2024-01-16T02:03:28;10;10;
80639;PMS5003;69992;60.170;24.692;2024-01-16T02:05:53;13;10;
80639;PMS5003;69992;60.170;24.692;2024-01-16T02:08:19;6;4;
80639;PMS5003;69992;60.170;24.692;2024-01-16T02:10:44;9;7;
80639;PMS5003;69992;60.170;24.692;2024-01-16T02:13:09;9;7;
80639;PMS5003;69992;60.170;24.692;2024-01-16T02:15:35;6;4;
80639;PMS5003;69992;60.170;24.692;2024-01-16T02:18:00;6;4;
80639;PMS5003;69992;60.170;24.692;2024-01-16T02:20:25;7;6;
80639;PMS5003;69992;60.170;24.692;2024-01-16T02:22:51;7;6;
80639;PMS5003;69992;60.170;24.692;2024-01-16T02:25:16;6;6;
80639;PMS5003;69992;60.170;24.692;2024-01-16T02:27:42;13;10;
80639;PMS5003;69992;60.170;24.692;2024-01-16T02:30:07;7;6;
80639;PMS5003;69992;60.170;24.692;2024-01-16T02:32:33;6;4;
80639;PMS5003;69992;60.170;24.692;2024-01-16T02:34:58;7;6;
80639;PMS5003;69992;60.170;24.692;2024-01-16T02:37:23;4;3;
80639;PMS5003;69992;60.170;24.692;2024-01-16T02:39:49;4;3;
80639;PMS5003;69992;60.170;24.692;2024-01-16T02:42:14;7;6;
80639;PMS5003;69992;60.170;24.692;2024-01-16T02:44:40;4;4;
80639;PMS5003;69992;60.170;24.692;2024-01-16T02:47:05;6;6;
80639;PMS5003;69992;60.170;24.692;2024-01-16T02:49:31;7;6;
80639;PMS5003;69992;60.170;24.692;2024-01-16T02:51:59;16;15;
80639;PMS5003;69992;60.170;24.692;2024-01-16T02:54:22;3;3;
80639;PMS5003;69992;60.170;24.692;2024-01-16T02:56:47;3;1;
80639;PMS5003;69992;60.170;24.692;2024-01-16T02:59:13;6;4;
80639;PMS5003;69992;60.170;24.692;2024-01-16T03:01:38;4;3;
80639;PMS5003;69992;60.170;24.692;2024-01-16T03:04:04;6;4;
80639;PMS5003;69992;60.170;24.692;2024-01-16T03:06:29;3;3;
80639;PMS5003;69992;60.170;24.692;2024-01-16T03:08:54;3;1;
80639;PMS5003;69992;60.170;24.692;2024-01-16T03:11:20;3;3;
80639;PMS5003;69992;60.170;24.692;2024-01-16T03:13:45;1;1;
80639;PMS5003;69992;60.170;24.692;2024-01-16T03:16:11;4;1;
80639;PMS5003;69992;60.170;24.692;2024-01-16T03:18:36;6;3;
80639;PMS5003;69992;60.170;24.692;2024-01-16T03:21:02;4;3;
80639;PMS5003;69992;60.170;24.692;2024-01-16T03:23:27;3;3;
80639;PMS5003;69992;60.170;24.692;2024-01-16T03:25:53;3;3;
80639;PMS5003;69992;60.170;24.692;2024-01-16T03:28:18;4;3;
80639;PMS5003;69992;60.170;24.692;2024-01-16T03:30:43;3;3;
80639;PMS5003;69992;60.170;24.692;2024-01-16T03:33:09;1;1;
80639;PMS5003;69992;60.170;24.692;2024-01-16T03:35:34;3;1;
80639;PMS5003;69992;60.170;24.692;2024-01-16T03:38:00;4;1;
80639;PMS5003;69992;60.170;24.692;2024-01-16T03:40:28;1;1;
80639;PMS5003;69992;60.170;24.692;2024-01-16T03:42:51;4;4;
80639;PMS5003;69992;60.170;24.692;2024-01-16T03:45:16;1;1;
80639;PMS5003;69992;60.170;24.692;2024-01-16T03:47:42;1;1;
80639;PMS5003;69992;60.170;24.692;2024-01-16T03:50:07;3;3;
80639;PMS5003;69992;60.170;24.692;2024-01-16T03:52:33;4;0;
80639;PMS5003;69992;60.170;24.692;2024-01-16T03:54:58;3;1;
80639;PMS5003;69992;60.170;24.692;2024-01-16T03:57:23;1;1;
80639;PMS5003;69992;60.170;24.692;2024-01-16T03:59:49;4;1;
80639;PMS5003;69992;60.170;24.692;2024-01-16T04:02:14;1;1;
80639;PMS5003;69992;60.170;24.692;2024-01-16T04:04:40;1;1;
80639;PMS5003;69992;60.170;24.692;2024-01-16T04:07:05;1;1;
80639;PMS5003;69992;60.170;24.692;2024-01-16T04:09:31;3;1;
80639;PMS5003;69992;60.170;24.692;2024-01-16T04:11:56;3;1;
80639;PMS5003;69992;60.170;24.692;2024-01-16T04:14:22;1;1;
80639;PMS5003;69992;60.170;24.692;2024-01-16T04:16:47;3;3;
80639;PMS5003;69992;60.170;24.692;2024-01-16T04:19:12;7;3;
80639;PMS5003;69992;60.170;24.692;2024-01-16T04:21:38;1;1;
80639;PMS5003;69992;60.170;24.692;2024-01-16T04:24:03;3;1;
80639;PMS5003;69992;60.170;24.692;2024-01-16T04:26:29;0;0;
80639;PMS5003;69992;60.170;24.692;2024-01-16T04:28:54;1;1;
80639;PMS5003;69992;60.170;24.692;2024-01-16T04:31:20;3;1;
80639;PMS5003;69992;60.170;24.692;2024-01-16T04:33:45;1;1;
80639;PMS5003;69992;60.170;24.692;2024-01-16T04:36:11;1;1;
80639;PMS5003;69992;60.170;24.692;2024-01-16T04:38:36;1;1;
80639;PMS5003;69992;60.170;24.692;2024-01-16T04:41:02;3;1;
80639;PMS5003;69992;60.170;24.692;2024-01-16T04:43:27;4;3;
80639;PMS5003;69992;60.170;24.692;2024-01-16T04:45:52;0;0;
80639;PMS5003;69992;60.170;24.692;2024-01-16T04:48:18;3;1;
80639;PMS5003;69992;60.170;24.692;2024-01-16T04:50:43;6;3;
80639;PMS5003;69992;60.170;24.692;2024-01-16T04:53:09;1;1;
80639;PMS5003;69992;60.170;24.692;2024-01-16T04:55:34;3;3;
80639;PMS5003;69992;60.170;24.692;2024-01-16T04:58:00;1;1;
80639;PMS5003;69992;60.170;24.692;2024-01-16T05:00:25;3;3;
80639;PMS5003;69992;60.170;24.692;2024-01-16T05:02:51;1;1;
80639;PMS5003;69992;60.170;24.692;2024-01-16T05:05:16;1;1;
80639;PMS5003;69992;60.170;24.692;2024-01-16T05:07:42;3;1;
80639;PMS5003;69992;60.170;24.692;2024-01-16T05:10:09;0;0;
80639;PMS5003;69992;60.170;24.692;2024-01-16T05:12:32;4;3;
80639;PMS5003;69992;60.170;24.692;2024-01-16T05:14:58;1;1;
80639;PMS5003;69992;60.170;24.692;2024-01-16T05:17:23;0;0;
80639;PMS5003;69992;60.170;24.692;2024-01-16T05:19:49;3;3;
80639;PMS5003;69992;60.170;24.692;2024-01-16T05:22:14;1;1;
80639;PMS5003;69992;60.170;24.692;2024-01-16T05:24:40;3;1;
80639;PMS5003;69992;60.170;24.692;2024-01-16T05:27:05;3;3;
80639;PMS5003;69992;60.170;24.692;2024-01-16T05:29:34;1;1;
80639;PMS5003;69992;60.170;24.692;2024-01-16T05:31:56;1;1;
80639;PMS5003;69992;60.170;24.692;2024-01-16T05:34:22;1;0;
80639;PMS5003;69992;60.170;24.692;2024-01-16T05:36:47;7;4;
80639;PMS5003;69992;60.170;24.692;2024-01-16T05:39:12;4;3;
80639;PMS5003;69992;60.170;24.692;2024-01-16T05:41:38;0;0;
80639;PMS5003;69992;60.170;24.692;2024-01-16T05:44:03;1;1;
80639;PMS5003;69992;60.170;24.692;2024-01-16T05:46:29;3;3;
80639;PMS5003;69992;60.170;24.692;2024-01-16T05:48:54;1;1;
80639;PMS5003;69992;60.170;24.692;2024-01-16T05:51:20;1;1;
80639;PMS5003;69992;60.170;24.692;2024-01-16T05:53:48;4;3;
80639;PMS5003;69992;60.170;24.692;2024-01-16T05:56:11;1;1;
80639;PMS5003;69992;60.170;24.692;2024-01-16T05:58:36;1;1;
80639;PMS5003;69992;60.170;24.692;2024-01-16T06:01:02;4;4;
80639;PMS5003;69992;60.170;24.692;2024-01-16T06:03:27;4;3;
80639;PMS5003;69992;60.170;24.692;2024-01-16T06:05:53;3;3;
80639;PMS5003;69992;60.170;24.692;2024-01-16T06:08:18;1;1;
80639;PMS5003;69992;60.170;24.692;2024-01-16T06:10:43;0;0;
80639;PMS5003;69992;60.170;24.692;2024-01-16T06:13:09;4;4;
80639;PMS5003;69992;60.170;24.692;2024-01-16T06:15:34;1;1;
80639;PMS5003;69992;60.170;24.692;2024-01-16T06:18:00;1;0;
80639;PMS5003;69992;60.170;24.692;2024-01-16T06:20:25;3;1;
80639;PMS5003;69992;60.170;24.692;2024-01-16T06:22:51;1;1;
80639;PMS5003;69992;60.170;24.692;2024-01-16T06:25:16;1;1;
80639;PMS5003;69992;60.170;24.692;2024-01-16T06:27:41;1;1;
80639;PMS5003;69992;60.170;24.692;2024-01-16T06:30:07;1;1;
80639;PMS5003;69992;60.170;24.692;2024-01-16T06:32:32;4;3;
80639;PMS5003;69992;60.170;24.692;2024-01-16T06:34:58;1;1;
80639;PMS5003;69992;60.170;24.692;2024-01-16T06:37:23;4;1;
80639;PMS5003;69992;60.170;24.692;2024-01-16T06:39:49;1;1;
80639;PMS5003;69992;60.170;24.692;2024-01-16T06:42:14;7;4;
80639;PMS5003;69992;60.170;24.692;2024-01-16T06:44:40;16;16;
80639;PMS5003;69992;60.170;24.692;2024-01-16T06:47:05;36;36;
80639;PMS5003;69992;60.170;24.692;2024-01-16T06:49:34;51;51;
80639;PMS5003;69992;60.170;24.692;2024-01-16T06:51:56;1;1;
80639;PMS5003;69992;60.170;24.692;2024-01-16T06:54:22;25;24;
80639;PMS5003;69992;60.170;24.692;2024-01-16T06:56:47;21;19;
80639;PMS5003;69992;60.170;24.692;2024-01-16T06:59:13;15;10;
80639;PMS5003;69992;60.170;24.692;2024-01-16T07:01:38;24;22;
80639;PMS5003;69992;60.170;24.692;2024-01-16T07:04:04;27;27;
80639;PMS5003;69992;60.170;24.692;2024-01-16T07:06:29;24;22;
80639;PMS5003;69992;60.170;24.692;2024-01-16T07:08:55;25;24;
80639;PMS5003;69992;60.170;24.692;2024-01-16T07:11:21;18;18;
80639;PMS5003;69992;60.170;24.692;2024-01-16T07:13:49;6;6;
80639;PMS5003;69992;60.170;24.692;2024-01-16T07:16:11;18;18;
80639;PMS5003;69992;60.170;24.692;2024-01-16T07:18:37;13;13;
80639;PMS5003;69992;60.170;24.692;2024-01-16T07:21:02;9;9;
80639;PMS5003;69992;60.170;24.692;2024-01-16T07:23:28;7;6;
80639;PMS5003;69992;60.170;24.692;2024-01-16T07:25:53;9;9;
80639;PMS5003;69992;60.170;24.692;2024-01-16T07:28:19;6;6;
80639;PMS5003;69992;60.170;24.692;2024-01-16T07:30:44;3;3;
80639;PMS5003;69992;60.170;24.692;2024-01-16T07:33:10;7;4;
80639;PMS5003;69992;60.170;24.692;2024-01-16T07:35:35;4;4;
80639;PMS5003;69992;60.170;24.692;2024-01-16T07:38:01;6;6;
80639;PMS5003;69992;60.170;24.692;2024-01-16T07:40:26;3;1;
80639;PMS5003;69992;60.170;24.692;2024-01-16T07:42:51;1;1;
80639;PMS5003;69992;60.170;24.692;2024-01-16T07:45:17;4;3;
80639;PMS5003;69992;60.170;24.692;2024-01-16T07:47:42;6;3;
80639;PMS5003;69992;60.170;24.692;2024-01-16T07:50:08;1;1;
80639;PMS5003;69992;60.170;24.692;2024-01-16T07:52:34;4;4;
80639;PMS5003;69992;60.170;24.692;2024-01-16T07:54:59;3;3;
80639;PMS5003;69992;60.170;24.692;2024-01-16T07:57:24;3;3;
80639;PMS5003;69992;60.170;24.692;2024-01-16T07:59:49;6;4;
80639;PMS5003;69992;60.170;24.692;2024-01-16T08:02:15;4;3;
80639;PMS5003;69992;60.170;24.692;2024-01-16T08:04:40;4;3;
80639;PMS5003;69992;60.170;24.692;2024-01-16T08:07:06;6;4;
80639;PMS5003;69992;60.170;24.692;2024-01-16T08:09:31;4;4;
80639;PMS5003;69992;60.170;24.692;2024-01-16T08:11:57;4;3;
80639;PMS5003;69992;60.170;24.692;2024-01-16T08:14:22;4;4;
80639;PMS5003;69992;60.170;24.692;2024-01-16T08:16:47;4;4;
80639;PMS5003;69992;60.170;24.692;2024-01-16T08:19:13;1;1;
80639;PMS5003;69992;60.170;24.692;2024-01-16T08:21:38;3;3;
80639;PMS5003;69992;60.170;24.692;2024-01-16T08:24:04;3;3;
80639;PMS5003;69992;60.170;24.692;2024-01-16T08:26:29;3;1;
80639;PMS5003;69992;60.170;24.692;2024-01-16T08:28:55;3;1;
80639;PMS5003;69992;60.170;24.692;2024-01-16T08:31:20;4;3;
80639;PMS5003;69992;60.170;24.692;2024-01-16T08:33:45;7;3;
80639;PMS5003;69992;60.170;24.692;2024-01-16T08:36:11;3;3;
80639;PMS5003;69992;60.170;24.692;2024-01-16T08:38:36;3;3;
80639;PMS5003;69992;60.170;24.692;2024-01-16T08:41:02;4;3;
80639;PMS5003;69992;60.170;24.692;2024-01-16T08:43:27;3;1;
80639;PMS5003;69992;60.170;24.692;2024-01-16T08:45:52;3;3;
80639;PMS5003;69992;60.170;24.692;2024-01-16T08:48:18;4;3;
80639;PMS5003;69992;60.170;24.692;2024-01-16T08:50:43;3;3;
80639;PMS5003;69992;60.170;24.692;2024-01-16T08:53:09;6;4;
80639;PMS5003;69992;60.170;24.692;2024-01-16T08:55:34;4;3;
80639;PMS5003;69992;60.170;24.692;2024-01-16T08:57:59;3;3;
80639;PMS5003;69992;60.170;24.692;2024-01-16T09:00:25;4;1;
80639;PMS5003;69992;60.170;24.692;2024-01-16T09:02:50;4;3;
80639;PMS5003;69992;60.170;24.692;2024-01-16T09:05:16;4;4;
80639;PMS5003;69992;60.170;24.692;2024-01-16T09:07:41;4;3;
80639;PMS5003;69992;60.170;24.692;2024-01-16T09:10:07;4;3;
80639;PMS5003;69992;60.170;24.692;2024-01-16T09:12:32;3;3;
80639;PMS5003;69992;60.170;24.692;2024-01-16T09:14:58;4;1;
80639;PMS5003;69992;60.170;24.692;2024-01-16T09:17:23;4;4;
80639;PMS5003;69992;60.170;24.692;2024-01-16T09:19:48;4;3;
80639;PMS5003;69992;60.170;24.692;2024-01-16T09:22:14;4;4;
80639;PMS5003;69992;60.170;24.692;2024-01-16T09:24:39;4;3;
80639;PMS5003;69992;60.170;24.692;2024-01-16T09:27:08;6;3;
80639;PMS5003;69992;60.170;24.692;2024-01-16T09:29:30;7;6;
80639;PMS5003;69992;60.170;24.692;2024-01-16T09:31:55;4;3;
80639;PMS5003;69992;60.170;24.692;2024-01-16T09:34:21;6;3;
80639;PMS5003;69992;60.170;24.692;2024-01-16T09:36:46;4;3;
80639;PMS5003;69992;60.170;24.692;2024-01-16T09:39:12;4;4;
80639;PMS5003;69992;60.170;24.692;2024-01-16T09:41:40;4;4;
80639;PMS5003;69992;60.170;24.692;2024-01-16T09:44:03;6;4;
80639;PMS5003;69992;60.170;24.692;2024-01-16T09:46:28;4;4;
80639;PMS5003;69992;60.170;24.692;2024-01-16T09:48:54;3;3;
80639;PMS5003;69992;60.170;24.692;2024-01-16T09:51:19;6;6;
80639;PMS5003;69992;60.170;24.692;2024-01-16T09:53:47;3;3;
80639;PMS5003;69992;60.170;24.692;2024-01-16T09:56:12;4;4;
80639;PMS5003;69992;60.170;24.692;2024-01-16T09:58:35;6;4;
80639;PMS5003;69992;60.170;24.692;2024-01-16T10:01:01;3;3;
80639;PMS5003;69992;60.170;24.692;2024-01-16T10:03:26;6;4;
80639;PMS5003;69992;60.170;24.692;2024-01-16T10:05:54;7;7;
80639;PMS5003;69992;60.170;24.692;2024-01-16T10:08:17;4;4;
80639;PMS5003;69992;60.170;24.692;2024-01-16T10:10:42;3;3;
80639;PMS5003;69992;60.170;24.692;2024-01-16T10:13:07;4;3;
80639;PMS5003;69992;60.170;24.692;2024-01-16T10:15:33;7;7;
80639;PMS5003;69992;60.170;24.692;2024-01-16T10:18:01;6;4;
80639;PMS5003;69992;60.170;24.692;2024-01-16T10:22:52;6;4;
80639;PMS5003;69992;60.170;24.692;2024-01-16T10:25:14;4;3;
80639;PMS5003;69992;60.170;24.692;2024-01-16T10:27:40;6;4;
80639;PMS5003;69992;60.170;24.692;2024-01-16T10:30:06;4;4;
80639;PMS5003;69992;60.170;24.692;2024-01-16T10:32:31;6;4;
80639;PMS5003;69992;60.170;24.692;2024-01-16T10:35:02;6;4;
80639;PMS5003;69992;60.170;24.692;2024-01-16T10:37:21;4;3;
80639;PMS5003;69992;60.170;24.692;2024-01-16T10:39:50;4;3;
80639;PMS5003;69992;60.170;24.692;2024-01-16T10:42:12;6;6;
80639;PMS5003;69992;60.170;24.692;2024-01-16T10:44:40;7;6;
80639;PMS5003;69992;60.170;24.692;2024-01-16T10:49:28;9;4;
80639;PMS5003;69992;60.170;24.692;2024-01-16T10:51:54;3;3;
80639;PMS5003;69992;60.170;24.692;2024-01-16T10:54:19;6;4;
80639;PMS5003;69992;60.170;24.692;2024-01-16T10:56:45;4;4;
80639;PMS5003;69992;60.170;24.692;2024-01-16T10:59:12;7;4;
80639;PMS5003;69992;60.170;24.692;2024-01-16T11:01:35;3;3;
80639;PMS5003;69992;60.170;24.692;2024-01-16T11:04:01;4;4;
80639;PMS5003;69992;60.170;24.692;2024-01-16T11:06:26;4;4;
80639;PMS5003;69992;60.170;24.692;2024-01-16T11:08:52;6;4;
80639;PMS5003;69992;60.170;24.692;2024-01-16T11:11:17;4;4;
80639;PMS5003;69992;60.170;24.692;2024-01-16T11:13:43;4;4;
80639;PMS5003;69992;60.170;24.692;2024-01-16T11:16:08;3;3;
80639;PMS5003;69992;60.170;24.692;2024-01-16T11:18:34;4;4;
80639;PMS5003;69992;60.170;24.692;2024-01-16T11:20:59;3;3;
80639;PMS5003;69992;60.170;24.692;2024-01-16T11:23:24;4;3;
80639;PMS5003;69992;60.170;24.692;2024-01-16T11:25:50;6;4;
80639;PMS5003;69992;60.170;24.692;2024-01-16T11:28:18;6;3;
80639;PMS5003;69992;60.170;24.692;2024-01-16T11:30:40;3;1;
80639;PMS5003;69992;60.170;24.692;2024-01-16T11:33:06;4;4;
80639;PMS5003;69992;60.170;24.692;2024-01-16T11:35:31;10;4;
80639;PMS5003;69992;60.170;24.692;2024-01-16T11:37:57;4;4;
80639;PMS5003;69992;60.170;24.692;2024-01-16T11:40:22;3;3;
80639;PMS5003;69992;60.170;24.692;2024-01-16T11:42:47;4;4;
80639;PMS5003;69992;60.170;24.692;2024-01-16T11:47:38;4;3;
80639;PMS5003;69992;60.170;24.692;2024-01-16T11:50:09;6;6;
80639;PMS5003;69992;60.170;24.692;2024-01-16T11:54:54;4;4;
80639;PMS5003;69992;60.170;24.692;2024-01-16T12:02:12;6;4;
80639;PMS5003;69992;60.170;24.692;2024-01-16T12:04:41;3;3;
80639;PMS5003;69992;60.170;24.692;2024-01-16T12:07:01;6;6;
80639;PMS5003;69992;60.170;24.692;2024-01-16T12:09:27;4;1;
80639;PMS5003;69992;60.170;24.692;2024-01-16T12:11:56;3;3;
80639;PMS5003;69992;60.170;24.692;2024-01-16T12:14:18;4;3;
80639;PMS5003;69992;60.170;24.692;2024-01-16T12:16:43;3;3;
80639;PMS5003;69992;60.170;24.692;2024-01-16T12:19:13;4;4;
80639;PMS5003;69992;60.170;24.692;2024-01-16T12:21:34;6;3;
80639;PMS5003;69992;60.170;24.692;2024-01-16T12:24:02;3;3;
80639;PMS5003;69992;60.170;24.692;2024-01-16T12:26:27;4;3;
80639;PMS5003;69992;60.170;24.692;2024-01-16T12:28:50;3;3;
80639;PMS5003;69992;60.170;24.692;2024-01-16T12:31:17;3;3;
80639;PMS5003;69992;60.170;24.692;2024-01-16T12:33:40;7;7;
80639;PMS5003;69992;60.170;24.692;2024-01-16T12:36:06;7;6;
80639;PMS5003;69992;60.170;24.692;2024-01-16T12:38:31;3;3;
80639;PMS5003;69992;60.170;24.692;2024-01-16T12:40:57;3;3;
80639;PMS5003;69992;60.170;24.692;2024-01-16T12:43:22;3;3;
80639;PMS5003;69992;60.170;24.692;2024-01-16T12:48:13;7;4;
80639;PMS5003;69992;60.170;24.692;2024-01-16T12:50:39;6;6;
80639;PMS5003;69992;60.170;24.692;2024-01-16T12:53:05;3;3;
80639;PMS5003;69992;60.170;24.692;2024-01-16T12:55:30;4;3;
80639;PMS5003;69992;60.170;24.692;2024-01-16T13:00:21;4;3;
80639;PMS5003;69992;60.170;24.692;2024-01-16T13:02:51;4;1;
80639;PMS5003;69992;60.170;24.692;2024-01-16T13:05:11;6;3;
80639;PMS5003;69992;60.170;24.692;2024-01-16T13:07:37;9;9;
80639;PMS5003;69992;60.170;24.692;2024-01-16T13:10:06;6;4;
80639;PMS5003;69992;60.170;24.692;2024-01-16T13:12:28;7;4;
80639;PMS5003;69992;60.170;24.692;2024-01-16T13:14:53;4;4;
80639;PMS5003;69992;60.170;24.692;2024-01-16T13:17:18;4;4;
80639;PMS5003;69992;60.170;24.692;2024-01-16T13:19:44;6;4;
80639;PMS5003;69992;60.170;24.692;2024-01-16T13:22:09;6;6;
80639;PMS5003;69992;60.170;24.692;2024-01-16T13:24:35;6;4;
80639;PMS5003;69992;60.170;24.692;2024-01-16T13:27:00;30;19;
80639;PMS5003;69992;60.170;24.692;2024-01-16T13:29:26;24;21;
80639;PMS5003;69992;60.170;24.692;2024-01-16T13:31:51;25;21;
80639;PMS5003;69992;60.170;24.692;2024-01-16T13:34:17;4;4;
80639;PMS5003;69992;60.170;24.692;2024-01-16T13:36:42;3;3;
80639;PMS5003;69992;60.170;24.692;2024-01-16T13:39:11;9;7;
80639;PMS5003;69992;60.170;24.692;2024-01-16T13:41:33;3;3;
80639;PMS5003;69992;60.170;24.692;2024-01-16T13:43:58;7;4;
80639;PMS5003;69992;60.170;24.692;2024-01-16T13:46:24;6;6;
80639;PMS5003;69992;60.170;24.692;2024-01-16T13:48:49;4;3;
80639;PMS5003;69992;60.170;24.692;2024-01-16T13:51:15;4;4;
80639;PMS5003;69992;60.170;24.692;2024-01-16T13:53:40;6;4;
80639;PMS5003;69992;60.170;24.692;2024-01-16T13:56:05;3;3;
80639;PMS5003;69992;60.170;24.692;2024-01-16T13:58:31;7;6;
80639;PMS5003;69992;60.170;24.692;2024-01-16T14:00:56;4;4;
80639;PMS5003;69992;60.170;24.692;2024-01-16T14:03:22;3;3;
80639;PMS5003;69992;60.170;24.692;2024-01-16T14:05:47;4;4;
80639;PMS5003;69992;60.170;24.692;2024-01-16T14:08:12;7;6;
80639;PMS5003;69992;60.170;24.692;2024-01-16T14:10:38;6;6;
80639;PMS5003;69992;60.170;24.692;2024-01-16T14:13:03;6;4;
80639;PMS5003;69992;60.170;24.692;2024-01-16T14:15:32;7;6;
80639;PMS5003;69992;60.170;24.692;2024-01-16T14:17:54;9;6;
80639;PMS5003;69992;60.170;24.692;2024-01-16T14:20:20;4;4;
80639;PMS5003;69992;60.170;24.692;2024-01-16T14:22:45;18;15;
80639;PMS5003;69992;60.170;24.692;2024-01-16T14:25:11;10;9;
80639;PMS5003;69992;60.170;24.692;2024-01-16T14:27:39;9;7;
80639;PMS5003;69992;60.170;24.692;2024-01-16T14:30:01;6;6;
80639;PMS5003;69992;60.170;24.692;2024-01-16T14:32:26;7;6;
80639;PMS5003;69992;60.170;24.692;2024-01-16T14:34:52;7;4;
80639;PMS5003;69992;60.170;24.692;2024-01-16T14:37:17;4;4;
80639;PMS5003;69992;60.170;24.692;2024-01-16T14:39:46;4;3;
80639;PMS5003;69992;60.170;24.692;2024-01-16T14:42:08;6;4;
80639;PMS5003;69992;60.170;24.692;2024-01-16T14:44:35;6;6;
80639;PMS5003;69992;60.170;24.692;2024-01-16T14:46:59;7;4;
80639;PMS5003;69992;60.170;24.692;2024-01-16T14:49:24;6;6;
80639;PMS5003;69992;60.170;24.692;2024-01-16T14:51:50;7;6;
80639;PMS5003;69992;60.170;24.692;2024-01-16T14:54:15;4;4;
80639;PMS5003;69992;60.170;24.692;2024-01-16T14:56:41;6;6;
80639;PMS5003;69992;60.170;24.692;2024-01-16T14:59:06;10;9;
80639;PMS5003;69992;60.170;24.692;2024-01-16T15:01:32;6;6;
80639;PMS5003;69992;60.170;24.692;2024-01-16T15:04:00;18;12;
80639;PMS5003;69992;60.170;24.692;2024-01-16T15:06:22;9;9;
80639;PMS5003;69992;60.170;24.692;2024-01-16T15:08:48;9;6;
80639;PMS5003;69992;60.170;24.692;2024-01-16T15:11:17;10;9;
80639;PMS5003;69992;60.170;24.692;2024-01-16T15:13:39;10;10;
80639;PMS5003;69992;60.170;24.692;2024-01-16T15:16:04;10;10;
80639;PMS5003;69992;60.170;24.692;2024-01-16T15:18:30;13;9;
80639;PMS5003;69992;60.170;24.692;2024-01-16T15:20:55;9;9;
80639;PMS5003;69992;60.170;24.692;2024-01-16T15:23:26;7;7;
80639;PMS5003;69992;60.170;24.692;2024-01-16T15:25:46;6;6;
80639;PMS5003;69992;60.170;24.692;2024-01-16T15:28:12;7;7;
80639;PMS5003;69992;60.170;24.692;2024-01-16T15:30:37;10;9;
80639;PMS5003;69992;60.170;24.692;2024-01-16T15:33:03;9;9;
80639;PMS5003;69992;60.170;24.692;2024-01-16T15:35:28;6;6;
80639;PMS5003;69992;60.170;24.692;2024-01-16T15:37:53;7;7;
80639;PMS5003;69992;60.170;24.692;2024-01-16T15:40:19;10;6;
80639;PMS5003;69992;60.170;24.692;2024-01-16T15:42:44;9;7;
80639;PMS5003;69992;60.170;24.692;2024-01-16T15:45:10;6;6;
80639;PMS5003;69992;60.170;24.692;2024-01-16T15:47:35;9;6;
80639;PMS5003;69992;60.170;24.692;2024-01-16T15:50:01;9;7;
80639;PMS5003;69992;60.170;24.692;2024-01-16T15:52:29;9;7;
80639;PMS5003;69992;60.170;24.692;2024-01-16T15:54:52;10;7;
80639;PMS5003;69992;60.170;24.692;2024-01-16T15:57:17;12;9;
80639;PMS5003;69992;60.170;24.692;2024-01-16T15:59:43;13;7;
80639;PMS5003;69992;60.170;24.692;2024-01-16T16:02:08;13;9;
80639;PMS5003;69992;60.170;24.692;2024-01-16T16:04:34;13;9;
80639;PMS5003;69992;60.170;24.692;2024-01-16T16:06:59;12;9;
80639;PMS5003;69992;60.170;24.692;2024-01-16T16:09:24;13;10;
80639;PMS5003;69992;60.170;24.692;2024-01-16T16:11:50;7;7;
80639;PMS5003;69992;60.170;24.692;2024-01-16T16:14:18;10;10;
80639;PMS5003;69992;60.170;24.692;2024-01-16T16:16:41;7;4;
80639;PMS5003;69992;60.170;24.692;2024-01-16T16:19:06;10;6;
80639;PMS5003;69992;60.170;24.692;2024-01-16T16:21:32;10;7;
80639;PMS5003;69992;60.170;24.692;2024-01-16T16:23:57;6;4;
80639;PMS5003;69992;60.170;24.692;2024-01-16T16:26:29;13;10;
80639;PMS5003;69992;60.170;24.692;2024-01-16T16:28:51;34;25;
80639;PMS5003;69992;60.170;24.692;2024-01-16T16:31:14;34;22;
80639;PMS5003;69992;60.170;24.692;2024-01-16T16:33:39;39;28;
80639;PMS5003;69992;60.170;24.692;2024-01-16T16:36:04;28;22;